sensor_id;sensor_type;location;lat;lon;timestamp;P1;durP1;ratioP1;P2;durP2;ratioP2
13566;SDS011;6855;48.112;11.298;2023-11-18T00:01:34;5.80;;;3.87;;
13566;SDS011;6855;48.112;11.298;2023-11-18T00:04:02;6.00;;;3.70;;
13566;SDS011;6855;48.112;11.298;2023-11-18T00:06:29;4.10;;;3.57;;
13566;SDS011;6855;48.112;11.298;2023-11-18T00:08:56;5.17;;;3.90;;
13566;SDS011;6855;48.112;11.298;2023-11-18T00:11:23;4.07;;;3.30;;
13566;SDS011;6855;48.112;11.298;2023-11-18T00:13:52;6.63;;;3.57;;
13566;SDS011;6855;48.112;11.298;2023-11-18T00:16:19;3.20;;;2.70;;
13566;SDS011;6855;48.112;11.298;2023-11-18T00:18:48;2.87;;;2.67;;
13566;SDS011;6855;48.112;11.298;2023-11-18T00:21:16;3.50;;;2.83;;
13566;SDS011;6855;48.112;11.298;2023-11-18T00:23:43;3.23;;;2.60;;
13566;SDS011;6855;48.112;11.298;2023-11-18T00:26:10;3.53;;;2.97;;
13566;SDS011;6855;48.112;11.298;2023-11-18T00:28:38;3.10;;;2.50;;
13566;SDS011;6855;48.112;11.298;2023-11-18T00:31:05;2.70;;;2.50;;
13566;SDS011;6855;48.112;11.298;2023-11-18T00:33:32;3.73;;;2.37;;
13566;SDS011;6855;48.112;11.298;2023-11-18T00:36:01;3.00;;;2.47;;
13566;SDS011;6855;48.112;11.298;2023-11-18T00:38:28;2.20;;;2.00;;
13566;SDS011;6855;48.112;11.298;2023-11-18T00:40:55;2.37;;;2.17;;
13566;SDS011;6855;48.112;11.298;2023-11-18T00:43:22;2.33;;;2.03;;
13566;SDS011;6855;48.112;11.298;2023-11-18T00:45:50;2.37;;;2.10;;
13566;SDS011;6855;48.112;11.298;2023-11-18T00:48:17;2.40;;;2.10;;
13566;SDS011;6855;48.112;11.298;2023-11-18T00:50:45;2.30;;;2.10;;
13566;SDS011;6855;48.112;11.298;2023-11-18T00:53:13;2.60;;;2.13;;
13566;SDS011;6855;48.112;11.298;2023-11-18T00:55:40;2.40;;;2.20;;
13566;SDS011;6855;48.112;11.298;2023-11-18T00:58:07;2.10;;;1.90;;
13566;SDS011;6855;48.112;11.298;2023-11-18T01:00:35;2.43;;;1.90;;
13566;SDS011;6855;48.112;11.298;2023-11-18T01:03:02;1.77;;;1.63;;
13566;SDS011;6855;48.112;11.298;2023-11-18T01:05:29;2.10;;;1.90;;
13566;SDS011;6855;48.112;11.298;2023-11-18T01:07:56;2.20;;;2.00;;
13566;SDS011;6855;48.112;11.298;2023-11-18T01:10:25;1.80;;;1.53;;
13566;SDS011;6855;48.112;11.298;2023-11-18T01:12:52;2.17;;;1.87;;
13566;SDS011;6855;48.112;11.298;2023-11-18T01:15:21;2.00;;;1.80;;
13566;SDS011;6855;48.112;11.298;2023-11-18T01:17:49;2.47;;;1.83;;
13566;SDS011;6855;48.112;11.298;2023-11-18T01:20:16;2.03;;;1.90;;
13566;SDS011;6855;48.112;11.298;2023-11-18T01:22:47;2.57;;;2.33;;
13566;SDS011;6855;48.112;11.298;2023-11-18T01:25:14;1.97;;;1.70;;
13566;SDS011;6855;48.112;11.298;2023-11-18T01:27:45;1.67;;;1.57;;
13566;SDS011;6855;48.112;11.298;2023-11-18T01:30:13;2.20;;;2.00;;
13566;SDS011;6855;48.112;11.298;2023-11-18T01:32:41;2.20;;;2.00;;
13566;SDS011;6855;48.112;11.298;2023-11-18T01:35:09;2.13;;;1.83;;
13566;SDS011;6855;48.112;11.298;2023-11-18T01:37:37;2.17;;;1.70;;
13566;SDS011;6855;48.112;11.298;2023-11-18T01:40:05;2.53;;;2.20;;
13566;SDS011;6855;48.112;11.298;2023-11-18T01:42:33;2.27;;;2.07;;
13566;SDS011;6855;48.112;11.298;2023-11-18T01:45:01;3.00;;;1.80;;
13566;SDS011;6855;48.112;11.298;2023-11-18T01:47:31;2.27;;;2.07;;
13566;SDS011;6855;48.112;11.298;2023-11-18T01:49:59;6.83;;;2.13;;
13566;SDS011;6855;48.112;11.298;2023-11-18T01:52:27;2.10;;;1.90;;
13566;SDS011;6855;48.112;11.298;2023-11-18T01:54:55;2.93;;;2.20;;
13566;SDS011;6855;48.112;11.298;2023-11-18T01:57:22;2.80;;;2.47;;
13566;SDS011;6855;48.112;11.298;2023-11-18T01:59:51;2.40;;;2.03;;
13566;SDS011;6855;48.112;11.298;2023-11-18T02:02:20;2.40;;;2.07;;
13566;SDS011;6855;48.112;11.298;2023-11-18T02:04:48;2.80;;;2.10;;
13566;SDS011;6855;48.112;11.298;2023-11-18T02:07:15;2.80;;;2.03;;
13566;SDS011;6855;48.112;11.298;2023-11-18T02:09:43;2.90;;;2.00;;
13566;SDS011;6855;48.112;11.298;2023-11-18T02:12:14;2.10;;;1.80;;
13566;SDS011;6855;48.112;11.298;2023-11-18T02:14:42;3.00;;;2.60;;
13566;SDS011;6855;48.112;11.298;2023-11-18T02:17:10;2.40;;;2.17;;
13566;SDS011;6855;48.112;11.298;2023-11-18T02:19:40;2.40;;;2.10;;
13566;SDS011;6855;48.112;11.298;2023-11-18T02:22:08;2.13;;;2.00;;
13566;SDS011;6855;48.112;11.298;2023-11-18T02:24:36;2.83;;;1.97;;
13566;SDS011;6855;48.112;11.298;2023-11-18T02:27:07;2.83;;;2.30;;
13566;SDS011;6855;48.112;11.298;2023-11-18T02:29:37;2.00;;;1.80;;
13566;SDS011;6855;48.112;11.298;2023-11-18T02:32:07;2.57;;;2.07;;
13566;SDS011;6855;48.112;11.298;2023-11-18T02:34:35;2.63;;;2.27;;
13566;SDS011;6855;48.112;11.298;2023-11-18T02:37:08;2.93;;;2.63;;
13566;SDS011;6855;48.112;11.298;2023-11-18T02:39:39;3.30;;;2.77;;
13566;SDS011;6855;48.112;11.298;2023-11-18T02:42:09;2.83;;;2.40;;
13566;SDS011;6855;48.112;11.298;2023-11-18T02:44:37;3.10;;;2.80;;
13566;SDS011;6855;48.112;11.298;2023-11-18T02:47:05;3.13;;;2.53;;
13566;SDS011;6855;48.112;11.298;2023-11-18T02:49:32;3.33;;;2.40;;
13566;SDS011;6855;48.112;11.298;2023-11-18T02:52:01;2.43;;;2.20;;
13566;SDS011;6855;48.112;11.298;2023-11-18T02:54:30;3.43;;;2.20;;
13566;SDS011;6855;48.112;11.298;2023-11-18T02:56:57;2.80;;;2.17;;
13566;SDS011;6855;48.112;11.298;2023-11-18T02:59:26;3.47;;;3.00;;
13566;SDS011;6855;48.112;11.298;2023-11-18T03:01:55;4.70;;;3.20;;
13566;SDS011;6855;48.112;11.298;2023-11-18T03:04:22;4.40;;;3.10;;
13566;SDS011;6855;48.112;11.298;2023-11-18T03:06:50;4.70;;;2.53;;
13566;SDS011;6855;48.112;11.298;2023-11-18T03:09:17;3.93;;;2.63;;
13566;SDS011;6855;48.112;11.298;2023-11-18T03:11:45;3.30;;;2.93;;
13566;SDS011;6855;48.112;11.298;2023-11-18T03:14:12;4.97;;;2.83;;
13566;SDS011;6855;48.112;11.298;2023-11-18T03:16:40;3.10;;;2.80;;
13566;SDS011;6855;48.112;11.298;2023-11-18T03:19:08;4.10;;;3.00;;
13566;SDS011;6855;48.112;11.298;2023-11-18T03:21:35;3.50;;;3.00;;
13566;SDS011;6855;48.112;11.298;2023-11-18T03:24:04;4.07;;;3.07;;
13566;SDS011;6855;48.112;11.298;2023-11-18T03:26:31;3.87;;;2.70;;
13566;SDS011;6855;48.112;11.298;2023-11-18T03:28:58;3.97;;;3.40;;
13566;SDS011;6855;48.112;11.298;2023-11-18T03:31:26;3.73;;;2.97;;
13566;SDS011;6855;48.112;11.298;2023-11-18T03:33:55;3.83;;;3.37;;
13566;SDS011;6855;48.112;11.298;2023-11-18T03:36:22;5.90;;;3.30;;
13566;SDS011;6855;48.112;11.298;2023-11-18T03:38:50;3.90;;;3.30;;
13566;SDS011;6855;48.112;11.298;2023-11-18T03:41:17;4.20;;;3.50;;
13566;SDS011;6855;48.112;11.298;2023-11-18T03:43:45;5.67;;;3.67;;
13566;SDS011;6855;48.112;11.298;2023-11-18T03:46:13;4.67;;;3.50;;
13566;SDS011;6855;48.112;11.298;2023-11-18T03:48:40;5.00;;;3.77;;
13566;SDS011;6855;48.112;11.298;2023-11-18T03:51:10;5.13;;;4.00;;
13566;SDS011;6855;48.112;11.298;2023-11-18T03:53:37;5.63;;;3.93;;
13566;SDS011;6855;48.112;11.298;2023-11-18T03:56:05;5.60;;;4.00;;
13566;SDS011;6855;48.112;11.298;2023-11-18T03:58:32;5.43;;;3.83;;
13566;SDS011;6855;48.112;11.298;2023-11-18T04:00:59;4.37;;;3.73;;
13566;SDS011;6855;48.112;11.298;2023-11-18T04:03:26;5.40;;;3.53;;
13566;SDS011;6855;48.112;11.298;2023-11-18T04:05:53;4.10;;;3.43;;
13566;SDS011;6855;48.112;11.298;2023-11-18T04:08:22;5.80;;;3.90;;
13566;SDS011;6855;48.112;11.298;2023-11-18T04:10:50;4.47;;;3.43;;
13566;SDS011;6855;48.112;11.298;2023-11-18T04:13:17;5.17;;;3.63;;
13566;SDS011;6855;48.112;11.298;2023-11-18T04:18:25;5.27;;;3.43;;
13566;SDS011;6855;48.112;11.298;2023-11-18T04:20:52;5.03;;;3.63;;
13566;SDS011;6855;48.112;11.298;2023-11-18T04:23:20;4.20;;;3.53;;
13566;SDS011;6855;48.112;11.298;2023-11-18T04:25:49;4.30;;;3.57;;
13566;SDS011;6855;48.112;11.298;2023-11-18T04:28:16;4.03;;;3.33;;
13566;SDS011;6855;48.112;11.298;2023-11-18T04:30:44;4.80;;;4.20;;
13566;SDS011;6855;48.112;11.298;2023-11-18T04:33:12;4.17;;;3.50;;
13566;SDS011;6855;48.112;11.298;2023-11-18T04:35:39;3.87;;;3.03;;
13566;SDS011;6855;48.112;11.298;2023-11-18T04:38:06;4.47;;;3.40;;
13566;SDS011;6855;48.112;11.298;2023-11-18T04:40:34;4.27;;;2.93;;
13566;SDS011;6855;48.112;11.298;2023-11-18T04:43:05;3.97;;;3.43;;
13566;SDS011;6855;48.112;11.298;2023-11-18T04:45:32;3.90;;;3.30;;
13566;SDS011;6855;48.112;11.298;2023-11-18T04:48:00;4.60;;;3.80;;
13566;SDS011;6855;48.112;11.298;2023-11-18T04:50:28;6.83;;;3.93;;
13566;SDS011;6855;48.112;11.298;2023-11-18T04:52:55;5.57;;;4.27;;
13566;SDS011;6855;48.112;11.298;2023-11-18T04:55:22;5.23;;;3.87;;
13566;SDS011;6855;48.112;11.298;2023-11-18T04:57:51;4.77;;;3.67;;
13566;SDS011;6855;48.112;11.298;2023-11-18T05:00:19;6.13;;;4.27;;
13566;SDS011;6855;48.112;11.298;2023-11-18T05:02:47;4.57;;;3.27;;
13566;SDS011;6855;48.112;11.298;2023-11-18T05:05:14;3.77;;;3.40;;
13566;SDS011;6855;48.112;11.298;2023-11-18T05:07:42;5.27;;;3.60;;
13566;SDS011;6855;48.112;11.298;2023-11-18T05:10:09;10.10;;;4.57;;
13566;SDS011;6855;48.112;11.298;2023-11-18T05:12:37;5.30;;;3.83;;
13566;SDS011;6855;48.112;11.298;2023-11-18T05:15:05;4.60;;;3.70;;
13566;SDS011;6855;48.112;11.298;2023-11-18T05:17:35;6.33;;;4.07;;
13566;SDS011;6855;48.112;11.298;2023-11-18T05:20:02;6.30;;;3.33;;
13566;SDS011;6855;48.112;11.298;2023-11-18T05:22:30;6.27;;;4.10;;
13566;SDS011;6855;48.112;11.298;2023-11-18T05:24:57;11.10;;;4.37;;
13566;SDS011;6855;48.112;11.298;2023-11-18T05:27:24;4.30;;;3.30;;
13566;SDS011;6855;48.112;11.298;2023-11-18T05:29:52;6.60;;;3.80;;
13566;SDS011;6855;48.112;11.298;2023-11-18T05:32:20;7.47;;;4.50;;
13566;SDS011;6855;48.112;11.298;2023-11-18T05:34:49;5.60;;;4.03;;
13566;SDS011;6855;48.112;11.298;2023-11-18T05:37:18;7.03;;;4.33;;
13566;SDS011;6855;48.112;11.298;2023-11-18T05:39:46;5.60;;;4.27;;
13566;SDS011;6855;48.112;11.298;2023-11-18T05:42:18;5.20;;;3.53;;
13566;SDS011;6855;48.112;11.298;2023-11-18T05:44:45;4.10;;;3.57;;
13566;SDS011;6855;48.112;11.298;2023-11-18T05:47:12;4.10;;;3.00;;
13566;SDS011;6855;48.112;11.298;2023-11-18T05:49:40;7.13;;;5.80;;
13566;SDS011;6855;48.112;11.298;2023-11-18T05:52:08;5.30;;;4.30;;
13566;SDS011;6855;48.112;11.298;2023-11-18T05:54:37;5.27;;;3.80;;
13566;SDS011;6855;48.112;11.298;2023-11-18T05:57:04;5.53;;;4.40;;
13566;SDS011;6855;48.112;11.298;2023-11-18T05:59:32;4.03;;;3.50;;
13566;SDS011;6855;48.112;11.298;2023-11-18T06:01:59;4.80;;;4.00;;
13566;SDS011;6855;48.112;11.298;2023-11-18T06:04:28;5.00;;;3.57;;
13566;SDS011;6855;48.112;11.298;2023-11-18T06:06:56;5.40;;;4.38;;
13566;SDS011;6855;48.112;11.298;2023-11-18T06:09:24;8.83;;;3.73;;
13566;SDS011;6855;48.112;11.298;2023-11-18T06:11:53;3.20;;;2.83;;
13566;SDS011;6855;48.112;11.298;2023-11-18T06:14:20;7.47;;;4.07;;
13566;SDS011;6855;48.112;11.298;2023-11-18T06:16:47;5.20;;;3.73;;
13566;SDS011;6855;48.112;11.298;2023-11-18T06:19:15;4.40;;;3.10;;
13566;SDS011;6855;48.112;11.298;2023-11-18T06:21:43;4.90;;;3.80;;
13566;SDS011;6855;48.112;11.298;2023-11-18T06:24:11;7.10;;;4.30;;
13566;SDS011;6855;48.112;11.298;2023-11-18T06:26:41;4.60;;;3.53;;
13566;SDS011;6855;48.112;11.298;2023-11-18T06:29:08;4.60;;;3.90;;
13566;SDS011;6855;48.112;11.298;2023-11-18T06:31:35;6.20;;;4.30;;
13566;SDS011;6855;48.112;11.298;2023-11-18T06:34:02;5.10;;;3.40;;
13566;SDS011;6855;48.112;11.298;2023-11-18T06:36:29;5.40;;;4.20;;
13566;SDS011;6855;48.112;11.298;2023-11-18T06:38:56;5.30;;;3.70;;
13566;SDS011;6855;48.112;11.298;2023-11-18T06:41:24;6.03;;;3.47;;
13566;SDS011;6855;48.112;11.298;2023-11-18T06:44:00;3.47;;;3.13;;
13566;SDS011;6855;48.112;11.298;2023-11-18T06:46:34;4.17;;;3.50;;
13566;SDS011;6855;48.112;11.298;2023-11-18T06:49:05;5.27;;;3.83;;
13566;SDS011;6855;48.112;11.298;2023-11-18T06:51:33;4.93;;;3.73;;
13566;SDS011;6855;48.112;11.298;2023-11-18T06:54:03;4.30;;;3.47;;
13566;SDS011;6855;48.112;11.298;2023-11-18T06:56:34;5.53;;;3.90;;
13566;SDS011;6855;48.112;11.298;2023-11-18T06:59:04;4.70;;;3.63;;
13566;SDS011;6855;48.112;11.298;2023-11-18T07:01:31;5.90;;;4.10;;
13566;SDS011;6855;48.112;11.298;2023-11-18T07:03:58;5.47;;;4.00;;
13566;SDS011;6855;48.112;11.298;2023-11-18T07:06:26;5.43;;;3.80;;
13566;SDS011;6855;48.112;11.298;2023-11-18T07:08:53;6.03;;;4.00;;
13566;SDS011;6855;48.112;11.298;2023-11-18T07:11:21;6.60;;;4.27;;
13566;SDS011;6855;48.112;11.298;2023-11-18T07:13:48;4.03;;;3.30;;
13566;SDS011;6855;48.112;11.298;2023-11-18T07:16:22;4.97;;;3.70;;
13566;SDS011;6855;48.112;11.298;2023-11-18T07:18:50;6.00;;;4.27;;
13566;SDS011;6855;48.112;11.298;2023-11-18T07:21:18;6.37;;;4.40;;
13566;SDS011;6855;48.112;11.298;2023-11-18T07:23:45;4.70;;;3.77;;
13566;SDS011;6855;48.112;11.298;2023-11-18T07:26:12;4.97;;;4.07;;
13566;SDS011;6855;48.112;11.298;2023-11-18T07:28:40;4.50;;;3.80;;
13566;SDS011;6855;48.112;11.298;2023-11-18T07:31:08;7.03;;;3.93;;
13566;SDS011;6855;48.112;11.298;2023-11-18T07:33:37;5.90;;;3.80;;
13566;SDS011;6855;48.112;11.298;2023-11-18T07:36:05;5.60;;;4.40;;
13566;SDS011;6855;48.112;11.298;2023-11-18T07:38:36;4.53;;;3.53;;
13566;SDS011;6855;48.112;11.298;2023-11-18T07:41:03;9.17;;;4.37;;
13566;SDS011;6855;48.112;11.298;2023-11-18T07:43:33;11.10;;;5.73;;
13566;SDS011;6855;48.112;11.298;2023-11-18T07:46:02;12.60;;;5.73;;
13566;SDS011;6855;48.112;11.298;2023-11-18T07:48:29;8.30;;;5.00;;
13566;SDS011;6855;48.112;11.298;2023-11-18T07:50:58;6.60;;;4.03;;
13566;SDS011;6855;48.112;11.298;2023-11-18T07:53:25;6.10;;;4.30;;
13566;SDS011;6855;48.112;11.298;2023-11-18T07:55:54;4.57;;;3.30;;
13566;SDS011;6855;48.112;11.298;2023-11-18T07:58:22;6.90;;;3.53;;
13566;SDS011;6855;48.112;11.298;2023-11-18T08:00:49;2.93;;;2.57;;
13566;SDS011;6855;48.112;11.298;2023-11-18T08:03:16;5.40;;;3.63;;
13566;SDS011;6855;48.112;11.298;2023-11-18T08:05:45;5.00;;;3.30;;
13566;SDS011;6855;48.112;11.298;2023-11-18T08:08:15;4.73;;;3.30;;
13566;SDS011;6855;48.112;11.298;2023-11-18T08:10:43;3.43;;;2.97;;
13566;SDS011;6855;48.112;11.298;2023-11-18T08:13:10;7.33;;;3.90;;
13566;SDS011;6855;48.112;11.298;2023-11-18T08:15:38;4.40;;;3.30;;
13566;SDS011;6855;48.112;11.298;2023-11-18T08:18:06;4.63;;;3.30;;
13566;SDS011;6855;48.112;11.298;2023-11-18T08:20:35;4.17;;;3.30;;
13566;SDS011;6855;48.112;11.298;2023-11-18T08:23:02;3.23;;;2.50;;
13566;SDS011;6855;48.112;11.298;2023-11-18T08:25:31;5.50;;;4.00;;
13566;SDS011;6855;48.112;11.298;2023-11-18T08:27:58;3.40;;;2.70;;
13566;SDS011;6855;48.112;11.298;2023-11-18T08:30:26;3.60;;;3.30;;
13566;SDS011;6855;48.112;11.298;2023-11-18T08:32:53;3.30;;;3.00;;
13566;SDS011;6855;48.112;11.298;2023-11-18T08:35:20;3.23;;;2.90;;
13566;SDS011;6855;48.112;11.298;2023-11-18T08:37:48;4.00;;;3.17;;
13566;SDS011;6855;48.112;11.298;2023-11-18T08:40:16;3.73;;;2.93;;
13566;SDS011;6855;48.112;11.298;2023-11-18T08:42:48;3.30;;;2.67;;
13566;SDS011;6855;48.112;11.298;2023-11-18T08:45:16;3.00;;;2.73;;
13566;SDS011;6855;48.112;11.298;2023-11-18T08:47:44;2.60;;;2.30;;
13566;SDS011;6855;48.112;11.298;2023-11-18T08:50:12;2.90;;;2.53;;
13566;SDS011;6855;48.112;11.298;2023-11-18T08:52:39;4.10;;;2.50;;
13566;SDS011;6855;48.112;11.298;2023-11-18T08:55:09;2.50;;;2.10;;
13566;SDS011;6855;48.112;11.298;2023-11-18T08:57:43;2.60;;;2.37;;
13566;SDS011;6855;48.112;11.298;2023-11-18T09:00:18;2.50;;;2.20;;
13566;SDS011;6855;48.112;11.298;2023-11-18T09:03:00;3.23;;;2.37;;
13566;SDS011;6855;48.112;11.298;2023-11-18T09:05:30;2.33;;;2.10;;
13566;SDS011;6855;48.112;11.298;2023-11-18T09:07:58;2.50;;;2.30;;
13566;SDS011;6855;48.112;11.298;2023-11-18T09:10:27;2.53;;;2.17;;
13566;SDS011;6855;48.112;11.298;2023-11-18T09:12:54;2.70;;;2.50;;
13566;SDS011;6855;48.112;11.298;2023-11-18T09:15:23;4.00;;;2.67;;
13566;SDS011;6855;48.112;11.298;2023-11-18T09:17:50;2.50;;;2.30;;
13566;SDS011;6855;48.112;11.298;2023-11-18T09:20:18;2.67;;;2.13;;
13566;SDS011;6855;48.112;11.298;2023-11-18T09:22:47;1.97;;;1.87;;
13566;SDS011;6855;48.112;11.298;2023-11-18T09:25:14;1.90;;;1.40;;
13566;SDS011;6855;48.112;11.298;2023-11-18T09:27:42;2.07;;;1.87;;
13566;SDS011;6855;48.112;11.298;2023-11-18T09:30:10;2.03;;;1.77;;
13566;SDS011;6855;48.112;11.298;2023-11-18T09:32:41;1.83;;;1.40;;
13566;SDS011;6855;48.112;11.298;2023-11-18T09:35:08;2.60;;;1.80;;
13566;SDS011;6855;48.112;11.298;2023-11-18T09:37:37;1.97;;;1.20;;
13566;SDS011;6855;48.112;11.298;2023-11-18T09:40:06;1.50;;;1.40;;
13566;SDS011;6855;48.112;11.298;2023-11-18T09:42:37;2.30;;;1.40;;
13566;SDS011;6855;48.112;11.298;2023-11-18T09:45:06;1.70;;;1.60;;
13566;SDS011;6855;48.112;11.298;2023-11-18T09:47:38;4.17;;;1.70;;
13566;SDS011;6855;48.112;11.298;2023-11-18T09:50:15;1.77;;;1.30;;
13566;SDS011;6855;48.112;11.298;2023-11-18T09:52:47;1.40;;;1.30;;
13566;SDS011;6855;48.112;11.298;2023-11-18T09:55:21;1.50;;;1.30;;
13566;SDS011;6855;48.112;11.298;2023-11-18T09:57:49;3.20;;;1.70;;
13566;SDS011;6855;48.112;11.298;2023-11-18T10:00:22;1.40;;;1.30;;
13566;SDS011;6855;48.112;11.298;2023-11-18T10:02:52;1.60;;;1.50;;
13566;SDS011;6855;48.112;11.298;2023-11-18T10:05:23;1.30;;;1.20;;
13566;SDS011;6855;48.112;11.298;2023-11-18T10:07:52;1.70;;;1.60;;
13566;SDS011;6855;48.112;11.298;2023-11-18T10:10:20;1.20;;;0.93;;
13566;SDS011;6855;48.112;11.298;2023-11-18T10:12:47;2.10;;;1.47;;
13566;SDS011;6855;48.112;11.298;2023-11-18T10:15:17;1.40;;;1.30;;
13566;SDS011;6855;48.112;11.298;2023-11-18T10:17:48;3.10;;;1.67;;
13566;SDS011;6855;48.112;11.298;2023-11-18T10:20:23;3.80;;;1.50;;
13566;SDS011;6855;48.112;11.298;2023-11-18T10:23:10;1.60;;;1.50;;
13566;SDS011;6855;48.112;11.298;2023-11-18T10:25:37;1.30;;;1.20;;
13566;SDS011;6855;48.112;11.298;2023-11-18T10:28:08;1.20;;;1.10;;
13566;SDS011;6855;48.112;11.298;2023-11-18T10:30:47;1.53;;;1.43;;
13566;SDS011;6855;48.112;11.298;2023-11-18T10:33:15;1.33;;;1.10;;
13566;SDS011;6855;48.112;11.298;2023-11-18T10:35:51;1.40;;;1.30;;
13566;SDS011;6855;48.112;11.298;2023-11-18T10:38:21;1.47;;;1.30;;
13566;SDS011;6855;48.112;11.298;2023-11-18T10:40:50;1.83;;;1.40;;
13566;SDS011;6855;48.112;11.298;2023-11-18T10:43:20;2.03;;;1.30;;
13566;SDS011;6855;48.112;11.298;2023-11-18T10:45:49;2.80;;;1.30;;
13566;SDS011;6855;48.112;11.298;2023-11-18T10:48:18;1.60;;;0.90;;
13566;SDS011;6855;48.112;11.298;2023-11-18T10:50:46;4.20;;;1.10;;
13566;SDS011;6855;48.112;11.298;2023-11-18T10:53:17;1.40;;;1.10;;
13566;SDS011;6855;48.112;11.298;2023-11-18T10:55:46;1.13;;;1.03;;
13566;SDS011;6855;48.112;11.298;2023-11-18T10:58:15;1.70;;;0.90;;
13566;SDS011;6855;48.112;11.298;2023-11-18T11:00:46;1.57;;;1.20;;
13566;SDS011;6855;48.112;11.298;2023-11-18T11:03:14;1.70;;;1.30;;
13566;SDS011;6855;48.112;11.298;2023-11-18T11:05:43;1.33;;;1.20;;
13566;SDS011;6855;48.112;11.298;2023-11-18T11:08:11;2.27;;;1.00;;
13566;SDS011;6855;48.112;11.298;2023-11-18T11:10:42;1.10;;;1.03;;
13566;SDS011;6855;48.112;11.298;2023-11-18T11:13:10;2.47;;;1.53;;
13566;SDS011;6855;48.112;11.298;2023-11-18T11:15:40;2.57;;;1.60;;
13566;SDS011;6855;48.112;11.298;2023-11-18T11:18:11;1.67;;;1.30;;
13566;SDS011;6855;48.112;11.298;2023-11-18T11:20:41;2.23;;;1.33;;
13566;SDS011;6855;48.112;11.298;2023-11-18T11:23:12;1.20;;;0.90;;
13566;SDS011;6855;48.112;11.298;2023-11-18T11:25:48;2.60;;;1.13;;
13566;SDS011;6855;48.112;11.298;2023-11-18T11:28:19;1.60;;;1.00;;
13566;SDS011;6855;48.112;11.298;2023-11-18T11:30:49;3.20;;;1.30;;
13566;SDS011;6855;48.112;11.298;2023-11-18T11:33:28;2.80;;;1.13;;
13566;SDS011;6855;48.112;11.298;2023-11-18T11:35:57;1.67;;;0.90;;
13566;SDS011;6855;48.112;11.298;2023-11-18T11:38:27;1.50;;;1.10;;
13566;SDS011;6855;48.112;11.298;2023-11-18T11:40:56;1.27;;;1.17;;
13566;SDS011;6855;48.112;11.298;2023-11-18T11:43:25;1.30;;;1.20;;
13566;SDS011;6855;48.112;11.298;2023-11-18T11:45:53;1.40;;;1.30;;
13566;SDS011;6855;48.112;11.298;2023-11-18T11:48:21;3.00;;;1.40;;
13566;SDS011;6855;48.112;11.298;2023-11-18T11:53:39;2.93;;;1.50;;
13566;SDS011;6855;48.112;11.298;2023-11-18T11:56:12;1.67;;;1.30;;
13566;SDS011;6855;48.112;11.298;2023-11-18T11:58:45;4.83;;;1.37;;
13566;SDS011;6855;48.112;11.298;2023-11-18T12:01:35;1.87;;;1.13;;
13566;SDS011;6855;48.112;11.298;2023-11-18T12:04:02;1.70;;;1.33;;
13566;SDS011;6855;48.112;11.298;2023-11-18T12:06:32;1.07;;;0.97;;
13566;SDS011;6855;48.112;11.298;2023-11-18T12:09:01;1.57;;;1.10;;
13566;SDS011;6855;48.112;11.298;2023-11-18T12:11:32;1.30;;;0.97;;
13566;SDS011;6855;48.112;11.298;2023-11-18T12:14:02;1.50;;;1.20;;
13566;SDS011;6855;48.112;11.298;2023-11-18T12:19:30;1.07;;;0.80;;
13566;SDS011;6855;48.112;11.298;2023-11-18T12:22:01;1.87;;;1.00;;
13566;SDS011;6855;48.112;11.298;2023-11-18T12:24:37;1.53;;;0.73;;
13566;SDS011;6855;48.112;11.298;2023-11-18T12:27:06;1.10;;;0.80;;
13566;SDS011;6855;48.112;11.298;2023-11-18T12:29:41;2.70;;;1.20;;
13566;SDS011;6855;48.112;11.298;2023-11-18T12:32:08;2.30;;;0.87;;
13566;SDS011;6855;48.112;11.298;2023-11-18T12:34:51;1.13;;;0.80;;
13566;SDS011;6855;48.112;11.298;2023-11-18T12:40:30;2.07;;;0.77;;
13566;SDS011;6855;48.112;11.298;2023-11-18T12:43:07;3.70;;;1.17;;
13566;SDS011;6855;48.112;11.298;2023-11-18T12:45:43;1.40;;;1.13;;
13566;SDS011;6855;48.112;11.298;2023-11-18T12:48:21;1.30;;;0.90;;
13566;SDS011;6855;48.112;11.298;2023-11-18T12:50:56;2.33;;;1.00;;
13566;SDS011;6855;48.112;11.298;2023-11-18T12:53:47;2.83;;;0.90;;
13566;SDS011;6855;48.112;11.298;2023-11-18T12:56:19;2.17;;;1.50;;
13566;SDS011;6855;48.112;11.298;2023-11-18T12:58:50;1.77;;;1.30;;
13566;SDS011;6855;48.112;11.298;2023-11-18T13:01:43;1.73;;;1.17;;
13566;SDS011;6855;48.112;11.298;2023-11-18T13:04:19;1.57;;;1.30;;
13566;SDS011;6855;48.112;11.298;2023-11-18T13:10:26;2.60;;;1.10;;
13566;SDS011;6855;48.112;11.298;2023-11-18T13:13:06;3.40;;;1.53;;
13566;SDS011;6855;48.112;11.298;2023-11-18T13:18:46;1.83;;;1.20;;
13566;SDS011;6855;48.112;11.298;2023-11-18T13:21:22;1.33;;;1.10;;
13566;SDS011;6855;48.112;11.298;2023-11-18T13:23:59;7.40;;;1.40;;
13566;SDS011;6855;48.112;11.298;2023-11-18T13:26:42;1.43;;;1.03;;
13566;SDS011;6855;48.112;11.298;2023-11-18T13:29:24;4.03;;;1.13;;
13566;SDS011;6855;48.112;11.298;2023-11-18T13:32:30;1.23;;;1.03;;
13566;SDS011;6855;48.112;11.298;2023-11-18T13:34:53;2.30;;;1.20;;
13566;SDS011;6855;48.112;11.298;2023-11-18T13:37:35;1.90;;;1.23;;
13566;SDS011;6855;48.112;11.298;2023-11-18T13:41:53;3.93;;;1.17;;
13566;SDS011;6855;48.112;11.298;2023-11-18T13:45:52;1.10;;;0.87;;
13566;SDS011;6855;48.112;11.298;2023-11-18T13:48:28;2.87;;;1.33;;
13566;SDS011;6855;48.112;11.298;2023-11-18T13:54:02;2.57;;;1.40;;
13566;SDS011;6855;48.112;11.298;2023-11-18T13:56:54;1.70;;;1.20;;
13566;SDS011;6855;48.112;11.298;2023-11-18T13:59:23;2.03;;;1.27;;
13566;SDS011;6855;48.112;11.298;2023-11-18T14:01:52;1.40;;;0.93;;
13566;SDS011;6855;48.112;11.298;2023-11-18T14:04:24;1.47;;;1.10;;
13566;SDS011;6855;48.112;11.298;2023-11-18T14:06:52;1.00;;;0.87;;
13566;SDS011;6855;48.112;11.298;2023-11-18T14:09:20;1.00;;;0.90;;
13566;SDS011;6855;48.112;11.298;2023-11-18T14:11:50;1.53;;;0.90;;
13566;SDS011;6855;48.112;11.298;2023-11-18T14:14:17;0.70;;;0.70;;
13566;SDS011;6855;48.112;11.298;2023-11-18T14:16:44;1.17;;;0.90;;
13566;SDS011;6855;48.112;11.298;2023-11-18T14:19:13;3.67;;;1.10;;
13566;SDS011;6855;48.112;11.298;2023-11-18T14:21:40;1.80;;;1.00;;
13566;SDS011;6855;48.112;11.298;2023-11-18T14:24:07;1.93;;;1.10;;
13566;SDS011;6855;48.112;11.298;2023-11-18T14:26:35;1.67;;;1.17;;
13566;SDS011;6855;48.112;11.298;2023-11-18T14:29:05;0.97;;;0.80;;
13566;SDS011;6855;48.112;11.298;2023-11-18T14:31:32;1.10;;;1.00;;
13566;SDS011;6855;48.112;11.298;2023-11-18T14:34:00;2.50;;;1.30;;
13566;SDS011;6855;48.112;11.298;2023-11-18T14:36:31;2.50;;;1.30;;
13566;SDS011;6855;48.112;11.298;2023-11-18T14:38:58;2.07;;;1.03;;
13566;SDS011;6855;48.112;11.298;2023-11-18T14:41:25;12.23;;;3.00;;
13566;SDS011;6855;48.112;11.298;2023-11-18T14:43:56;6.30;;;2.20;;
13566;SDS011;6855;48.112;11.298;2023-11-18T14:46:23;6.60;;;2.07;;
13566;SDS011;6855;48.112;11.298;2023-11-18T14:48:52;9.63;;;1.60;;
13566;SDS011;6855;48.112;11.298;2023-11-18T14:51:20;3.30;;;1.40;;
13566;SDS011;6855;48.112;11.298;2023-11-18T14:53:48;1.57;;;0.90;;
13566;SDS011;6855;48.112;11.298;2023-11-18T14:56:15;1.63;;;0.80;;
13566;SDS011;6855;48.112;11.298;2023-11-18T14:58:44;2.70;;;1.13;;
13566;SDS011;6855;48.112;11.298;2023-11-18T15:01:14;3.07;;;0.90;;
13566;SDS011;6855;48.112;11.298;2023-11-18T15:03:48;2.07;;;1.57;;
13566;SDS011;6855;48.112;11.298;2023-11-18T15:06:29;1.30;;;0.80;;
13566;SDS011;6855;48.112;11.298;2023-11-18T15:12:03;1.10;;;1.00;;
13566;SDS011;6855;48.112;11.298;2023-11-18T15:14:52;1.97;;;1.20;;
13566;SDS011;6855;48.112;11.298;2023-11-18T15:17:29;3.17;;;1.20;;
13566;SDS011;6855;48.112;11.298;2023-11-18T15:20:56;3.63;;;1.20;;
13566;SDS011;6855;48.112;11.298;2023-11-18T15:23:34;1.93;;;1.00;;
13566;SDS011;6855;48.112;11.298;2023-11-18T15:26:20;1.30;;;1.10;;
13566;SDS011;6855;48.112;11.298;2023-11-18T15:31:44;1.30;;;1.00;;
13566;SDS011;6855;48.112;11.298;2023-11-18T15:34:28;2.10;;;1.43;;